createdAt,value
2019-03-03T00:00:58.480Z,89.44
2019-03-03T00:01:58.787Z,88.61
2019-03-03T00:02:59.150Z,88.98
2019-03-03T00:03:59.333Z,88.88
2019-03-03T00:04:59.617Z,88.88
2019-03-03T00:05:59.873Z,88.98
2019-03-03T00:07:00.168Z,88.98
2019-03-03T00:08:00.435Z,88.53
2019-03-03T00:09:00.671Z,88.46
2019-03-03T00:10:00.972Z,88.36
2019-03-03T00:11:01.343Z,88.01
2019-03-03T00:12:01.499Z,88.42
2019-03-03T00:13:01.792Z,88.32
2019-03-03T00:14:02.018Z,88.21
2019-03-03T00:15:02.321Z,88.21
2019-03-03T00:16:02.571Z,88.11
2019-03-03T00:17:02.836Z,88.21
2019-03-03T00:18:03.129Z,87.80
2019-03-03T00:19:03.427Z,87.70
2019-03-03T00:20:03.645Z,87.70
2019-03-03T00:21:08.666Z,87.70
2019-03-03T00:22:04.211Z,87.76
2019-03-03T00:23:04.467Z,87.66
2019-03-03T00:24:04.686Z,87.87
2019-03-03T00:25:04.997Z,87.76
2019-03-03T00:26:05.244Z,87.76
2019-03-03T00:27:05.623Z,87.66
2019-03-03T00:28:05.826Z,87.76
2019-03-03T00:29:06.019Z,87.76
2019-03-03T00:30:06.318Z,87.76
2019-03-03T00:31:06.570Z,88.07
2019-03-03T00:32:06.875Z,87.97
2019-03-03T00:33:07.168Z,87.55
2019-03-03T00:34:07.415Z,87.97
2019-03-03T00:35:07.706Z,87.82
2019-03-03T00:36:07.947Z,87.87
2019-03-03T00:37:08.199Z,87.55
2019-03-03T00:38:08.458Z,87.76
2019-03-03T00:39:08.759Z,87.55
2019-03-03T00:40:08.967Z,87.82
2019-03-03T00:41:09.263Z,87.62
2019-03-03T00:42:09.545Z,87.62
2019-03-03T00:43:09.810Z,87.66
2019-03-03T00:44:10.201Z,87.51
2019-03-03T00:45:10.364Z,87.51
2019-03-03T00:46:10.618Z,87.51
2019-03-03T00:47:10.904Z,87.41
2019-03-03T00:48:11.144Z,87.41
2019-03-03T00:49:11.473Z,87.51
2019-03-03T00:50:11.789Z,87.06
2019-03-03T00:51:11.940Z,87.20
2019-03-03T00:52:14.167Z,87.27
2019-03-03T00:53:12.490Z,87.06
2019-03-03T00:54:12.961Z,87.27
2019-03-03T00:55:13.291Z,87.27
2019-03-03T00:56:13.285Z,87.27
2019-03-03T00:57:13.584Z,87.06
2019-03-03T00:58:13.838Z,87.16
2019-03-03T00:59:14.142Z,87.27
2019-03-03T01:00:14.419Z,87.06
2019-03-03T01:01:14.617Z,87.37
2019-03-03T01:02:14.907Z,87.27
2019-03-03T01:03:15.173Z,87.33
2019-03-03T01:04:15.508Z,86.96
2019-03-03T01:05:15.715Z,87.02
2019-03-03T01:06:15.972Z,87.43
2019-03-03T01:07:16.242Z,87.33
2019-03-03T01:08:16.522Z,87.23
2019-03-03T01:09:16.788Z,87.23
2019-03-03T01:10:17.043Z,87.02
2019-03-03T01:11:17.303Z,87.23
2019-03-03T01:12:17.595Z,87.12
2019-03-03T01:13:17.833Z,86.91
2019-03-03T01:14:18.166Z,87.02
2019-03-03T01:15:18.391Z,86.91
2019-03-03T01:16:18.670Z,87.23
2019-03-03T01:17:19.016Z,86.57
2019-03-03T01:18:19.171Z,86.77
2019-03-03T01:19:19.476Z,86.67
2019-03-03T01:20:19.730Z,86.46
2019-03-03T01:21:20.000Z,86.40
2019-03-03T01:22:20.265Z,86.71
2019-03-03T01:23:20.588Z,86.57
2019-03-03T01:24:20.819Z,86.57
2019-03-03T01:25:21.234Z,87.08
2019-03-03T01:26:21.355Z,86.67
2019-03-03T01:27:21.641Z,87.29
2019-03-03T01:28:21.897Z,87.60
2019-03-03T01:29:22.144Z,88.32
2019-03-03T01:30:22.436Z,88.74
2019-03-03T01:31:22.691Z,89.36
2019-03-03T01:32:22.963Z,89.04
2019-03-03T01:33:23.296Z,89.87
2019-03-03T01:34:23.496Z,89.77
2019-03-03T01:35:23.751Z,89.98
2019-03-03T01:36:24.022Z,90.70
2019-03-03T01:37:24.313Z,90.91
2019-03-03T01:38:24.578Z,90.60
2019-03-03T01:39:24.806Z,90.91
2019-03-03T01:40:25.170Z,91.22
2019-03-03T01:41:25.399Z,91.53
2019-03-03T01:42:25.617Z,91.32
2019-03-03T01:43:25.899Z,91.01
2019-03-03T01:44:26.162Z,91.42
2019-03-03T01:45:26.428Z,91.94
2019-03-03T01:46:26.671Z,92.67
2019-03-03T01:47:26.947Z,92.36
2019-03-03T01:48:27.298Z,92.36
2019-03-03T01:49:27.550Z,92.25
2019-03-03T01:50:27.848Z,92.42
2019-03-03T01:51:28.009Z,92.21
2019-03-03T01:52:28.303Z,92.42
2019-03-03T01:53:28.654Z,92.11
2019-03-03T01:54:28.842Z,92.21
2019-03-03T01:55:29.134Z,92.25
2019-03-03T01:56:29.385Z,92.36
2019-03-03T01:57:29.653Z,92.36
2019-03-03T01:58:30.091Z,92.46
2019-03-03T01:59:30.168Z,92.42
2019-03-03T02:00:30.468Z,93.24
2019-03-03T02:01:30.719Z,92.83
2019-03-03T02:02:30.975Z,92.97
2019-03-03T02:03:31.274Z,93.18
2019-03-03T02:04:31.520Z,93.39
2019-03-03T02:05:31.814Z,93.49
2019-03-03T02:06:32.211Z,93.24
2019-03-03T02:07:32.311Z,93.04
2019-03-03T02:08:32.610Z,93.60
2019-03-03T02:09:32.864Z,93.55
2019-03-03T02:10:33.140Z,93.66
2019-03-03T02:11:33.431Z,93.55
2019-03-03T02:12:33.677Z,93.66
2019-03-03T02:13:33.970Z,93.66
2019-03-03T02:14:34.276Z,93.70
2019-03-03T02:15:34.477Z,93.70
2019-03-03T02:16:34.734Z,93.35
2019-03-03T02:17:35.005Z,93.55
2019-03-03T02:18:35.339Z,94.07
2019-03-03T02:19:35.520Z,93.87
2019-03-03T02:20:35.786Z,93.76
2019-03-03T02:21:36.062Z,93.66
2019-03-03T02:22:36.375Z,93.97
2019-03-03T02:23:36.602Z,94.18
2019-03-03T02:24:36.849Z,93.35
2019-03-03T02:25:37.103Z,93.76
2019-03-03T02:26:37.424Z,93.76
2019-03-03T02:27:37.683Z,93.45
2019-03-03T02:28:37.971Z,93.66
2019-03-03T02:29:38.222Z,94.18
2019-03-03T02:30:38.518Z,94.07
2019-03-03T02:31:38.878Z,93.87
2019-03-03T02:32:39.043Z,93.72
2019-03-03T02:33:39.600Z,93.93
2019-03-03T02:34:39.577Z,93.93
2019-03-03T02:35:39.850Z,93.93
2019-03-03T02:36:40.132Z,93.93
2019-03-03T02:37:40.370Z,93.97
2019-03-03T02:38:40.674Z,93.82
2019-03-03T02:39:41.038Z,93.62
2019-03-03T02:40:41.207Z,94.23
2019-03-03T02:41:41.463Z,93.93
2019-03-03T02:42:41.721Z,94.85
2019-03-03T02:43:42.031Z,94.03
2019-03-03T02:44:42.258Z,93.82
2019-03-03T02:45:42.529Z,94.03
2019-03-03T02:46:42.830Z,93.82
2019-03-03T02:47:43.149Z,94.03
2019-03-03T02:48:43.345Z,94.23
2019-03-03T02:49:43.596Z,94.85
2019-03-03T02:50:43.865Z,94.96
2019-03-03T02:51:44.169Z,94.75
2019-03-03T02:52:44.388Z,94.75
2019-03-03T02:53:44.702Z,95.06
2019-03-03T02:54:44.960Z,95.37
2019-03-03T02:55:45.252Z,95.57
2019-03-03T02:56:45.517Z,95.57
2019-03-03T02:57:45.745Z,95.89
2019-03-03T02:58:46.016Z,96.20
2019-03-03T02:59:46.356Z,96.41
2019-03-03T03:00:46.568Z,96.72
2019-03-03T03:01:46.847Z,96.41
2019-03-03T03:02:47.130Z,96.82
2019-03-03T03:03:47.412Z,96.82
2019-03-03T03:04:47.705Z,96.82
2019-03-03T03:05:48.006Z,96.92
2019-03-03T03:06:48.278Z,97.02
2019-03-03T03:07:48.515Z,96.82
2019-03-03T03:08:48.806Z,96.72
2019-03-03T03:09:49.051Z,96.88
2019-03-03T03:10:49.311Z,97.39
2019-03-03T03:11:49.681Z,96.88
2019-03-03T03:12:49.976Z,97.50
2019-03-03T03:13:50.163Z,97.23
2019-03-03T03:14:50.491Z,96.77
2019-03-03T03:15:50.666Z,97.08
2019-03-03T03:16:50.979Z,97.29
2019-03-03T03:17:51.221Z,97.19
2019-03-03T03:18:51.506Z,97.44
2019-03-03T03:19:51.759Z,97.23
2019-03-03T03:20:52.146Z,97.23
2019-03-03T03:21:52.357Z,97.33
2019-03-03T03:22:52.555Z,97.64
2019-03-03T03:23:52.846Z,97.60
2019-03-03T03:24:53.103Z,97.71
2019-03-03T03:25:53.370Z,97.85
2019-03-03T03:26:53.650Z,98.37
2019-03-03T03:27:53.907Z,98.37
2019-03-03T03:28:54.240Z,98.22
2019-03-03T03:29:54.456Z,98.47
2019-03-03T03:30:54.748Z,98.37
2019-03-03T03:31:55.038Z,98.01
2019-03-03T03:32:55.273Z,98.22
2019-03-03T03:33:55.554Z,98.01
2019-03-03T03:34:55.849Z,98.06
2019-03-03T03:35:56.109Z,97.91
2019-03-03T03:36:56.489Z,98.06
2019-03-03T03:37:56.611Z,98.01
2019-03-03T03:38:56.908Z,97.91
2019-03-03T03:39:57.202Z,98.16
2019-03-03T03:40:57.450Z,98.01
2019-03-03T03:41:57.740Z,98.01
2019-03-03T03:42:58.000Z,98.11
2019-03-03T03:43:58.239Z,98.01
2019-03-03T03:44:58.564Z,98.11
2019-03-03T03:45:58.839Z,98.01
2019-03-03T03:46:59.086Z,98.27
2019-03-03T03:47:59.363Z,98.01
2019-03-03T03:48:59.589Z,98.11
2019-03-03T03:49:59.891Z,97.91
2019-03-03T03:51:00.146Z,98.01
2019-03-03T03:52:00.436Z,97.91
2019-03-03T03:53:00.701Z,98.43
2019-03-03T03:54:01.054Z,98.32
2019-03-03T03:55:01.231Z,98.43
2019-03-03T03:56:01.495Z,98.43
2019-03-03T03:57:01.785Z,98.43
2019-03-03T03:58:02.048Z,98.53
2019-03-03T03:59:02.301Z,98.01
2019-03-03T04:00:02.588Z,97.91
2019-03-03T04:01:02.826Z,97.60
2019-03-03T04:02:03.260Z,97.91
2019-03-03T04:03:03.399Z,97.91
2019-03-03T04:04:03.639Z,97.39
2019-03-03T04:05:03.919Z,97.71
2019-03-03T04:06:04.190Z,97.54
2019-03-03T04:07:04.477Z,98.06
2019-03-03T04:08:04.728Z,97.50
2019-03-03T04:09:04.981Z,97.81
2019-03-03T04:10:05.315Z,97.50
2019-03-03T04:11:05.492Z,97.71
2019-03-03T04:12:06.024Z,98.27
2019-03-03T04:13:06.070Z,98.22
2019-03-03T04:14:06.336Z,98.32
2019-03-03T04:15:06.615Z,98.47
2019-03-03T04:16:06.869Z,97.91
2019-03-03T04:17:07.154Z,97.81
2019-03-03T04:18:07.451Z,97.81
2019-03-03T04:19:07.649Z,98.11
2019-03-03T04:20:07.943Z,97.91
2019-03-03T04:21:08.263Z,98.53
2019-03-03T04:22:08.489Z,98.32
2019-03-03T04:23:08.748Z,98.11
2019-03-03T04:24:09.010Z,98.11
2019-03-03T04:25:09.300Z,97.39
2019-03-03T04:26:10.081Z,97.60
2019-03-03T04:27:09.926Z,97.29
2019-03-03T04:28:10.102Z,97.14
2019-03-03T04:29:10.366Z,96.94
2019-03-03T04:30:10.665Z,97.04
2019-03-03T04:31:10.913Z,96.69
2019-03-03T04:32:11.183Z,96.99
2019-03-03T04:33:11.469Z,96.42
2019-03-03T04:34:11.713Z,96.42
2019-03-03T04:35:12.476Z,96.52
2019-03-03T04:36:12.263Z,96.52
2019-03-03T04:37:12.524Z,96.21
2019-03-03T04:38:12.810Z,96.62
2019-03-03T04:39:13.065Z,96.11
2019-03-03T04:40:13.400Z,95.76
2019-03-03T04:41:13.646Z,95.55
2019-03-03T04:42:13.899Z,95.55
2019-03-03T04:43:14.305Z,95.45
2019-03-03T04:44:14.424Z,95.45
2019-03-03T04:45:14.703Z,95.24
2019-03-03T04:46:14.965Z,95.14
2019-03-03T04:47:15.240Z,95.03
2019-03-03T04:48:15.524Z,95.03
2019-03-03T04:49:15.783Z,95.14
2019-03-03T04:50:16.060Z,94.82
2019-03-03T04:51:16.347Z,94.82
2019-03-03T04:52:16.559Z,94.62
2019-03-03T04:53:16.852Z,94.72
2019-03-03T04:54:17.111Z,94.57
2019-03-03T04:55:17.393Z,94.82
2019-03-03T04:56:17.636Z,94.31
2019-03-03T04:57:17.891Z,94.52
2019-03-03T04:58:18.190Z,94.72
2019-03-03T04:59:18.481Z,94.72
2019-03-03T05:00:18.730Z,94.72
2019-03-03T05:01:18.975Z,94.93
2019-03-03T05:02:19.233Z,94.72
2019-03-03T05:03:19.524Z,95.03
2019-03-03T05:04:19.805Z,94.78
2019-03-03T05:05:20.073Z,94.89
2019-03-03T05:06:20.321Z,94.37
2019-03-03T05:07:20.636Z,94.00
2019-03-03T05:08:20.994Z,93.96
2019-03-03T05:09:21.122Z,93.85
2019-03-03T05:10:21.408Z,93.54
2019-03-03T05:11:21.658Z,93.34
2019-03-03T05:12:21.925Z,93.13
2019-03-03T05:13:22.208Z,93.19
2019-03-03T05:14:22.468Z,93.75
2019-03-03T05:15:22.755Z,93.09
2019-03-03T05:16:23.148Z,93.44
2019-03-03T05:17:23.242Z,93.09
2019-03-03T05:18:23.528Z,93.19
2019-03-03T05:19:23.807Z,92.99
2019-03-03T05:20:24.108Z,92.68
2019-03-03T05:21:24.344Z,92.88
2019-03-03T05:22:24.611Z,92.99
2019-03-03T05:23:24.904Z,92.99
2019-03-03T05:24:33.657Z,92.37
2019-03-03T05:25:26.430Z,92.16
2019-03-03T05:26:25.673Z,91.96
2019-03-03T05:27:25.936Z,92.16
2019-03-03T05:28:26.229Z,91.81
2019-03-03T05:29:26.464Z,92.02
2019-03-03T05:30:26.762Z,92.16
2019-03-03T05:31:27.019Z,91.60
2019-03-03T05:32:27.314Z,91.85
2019-03-03T05:33:27.554Z,91.19
2019-03-03T05:34:27.805Z,91.09
2019-03-03T05:35:28.069Z,90.57
2019-03-03T05:36:28.334Z,91.40
2019-03-03T05:37:28.625Z,91.60
2019-03-03T05:38:28.901Z,91.40
2019-03-03T05:39:29.162Z,91.30
2019-03-03T05:40:29.465Z,91.30
2019-03-03T05:41:29.801Z,90.47
2019-03-03T05:42:29.990Z,91.50
2019-03-03T05:43:30.273Z,91.09
2019-03-03T05:44:30.525Z,91.60
2019-03-03T05:45:30.820Z,91.40
2019-03-03T05:46:31.081Z,91.09
2019-03-03T05:47:31.335Z,91.30
2019-03-03T05:48:31.644Z,90.88
2019-03-03T05:49:32.239Z,90.88
2019-03-03T05:50:32.163Z,90.94
2019-03-03T05:51:32.421Z,91.09
2019-03-03T05:52:32.670Z,90.94
2019-03-03T05:53:32.972Z,90.84
2019-03-03T05:54:33.221Z,90.73
2019-03-03T05:55:33.499Z,90.88
2019-03-03T05:56:33.781Z,90.84
2019-03-03T05:57:34.125Z,90.88
2019-03-03T05:58:34.312Z,90.94
2019-03-03T05:59:34.561Z,90.64
2019-03-03T06:00:34.845Z,90.78
2019-03-03T06:01:35.118Z,90.84
2019-03-03T06:02:35.369Z,90.99
2019-03-03T06:03:35.639Z,90.84
2019-03-03T06:04:35.905Z,90.94
2019-03-03T06:05:36.261Z,90.94
2019-03-03T06:06:36.442Z,90.94
2019-03-03T06:07:36.699Z,90.73
2019-03-03T06:08:36.988Z,90.88
2019-03-03T06:09:37.223Z,90.73
2019-03-03T06:10:37.539Z,90.73
2019-03-03T06:11:37.793Z,90.53
2019-03-03T06:12:38.038Z,90.84
2019-03-03T06:13:38.383Z,90.33
2019-03-03T06:14:38.540Z,90.33
2019-03-03T06:15:38.860Z,90.33
2019-03-03T06:16:39.140Z,90.12
2019-03-03T06:17:39.396Z,90.33
2019-03-03T06:18:39.680Z,90.43
2019-03-03T06:19:39.934Z,90.08
2019-03-03T06:20:40.197Z,90.59
2019-03-03T06:21:40.493Z,90.22
2019-03-03T06:22:40.867Z,89.97
2019-03-03T06:23:41.008Z,90.18
2019-03-03T06:24:41.266Z,90.28
2019-03-03T06:25:41.554Z,89.77
2019-03-03T06:26:41.821Z,90.18
2019-03-03T06:27:42.087Z,89.97
2019-03-03T06:28:42.383Z,89.97
2019-03-03T06:29:42.629Z,89.42
2019-03-03T06:30:43.039Z,89.94
2019-03-03T06:31:43.182Z,89.46
2019-03-03T06:32:43.432Z,89.42
2019-03-03T06:33:43.715Z,89.73
2019-03-03T06:34:43.973Z,89.42
2019-03-03T06:35:44.267Z,89.62
2019-03-03T06:36:44.509Z,89.22
2019-03-03T06:37:44.767Z,89.01
2019-03-03T06:38:45.139Z,89.28
2019-03-03T06:39:45.300Z,88.76
2019-03-03T06:40:45.572Z,88.76
2019-03-03T06:41:45.868Z,88.45
2019-03-03T06:42:46.092Z,88.56
2019-03-03T06:43:46.379Z,88.96
2019-03-03T06:44:46.664Z,88.76
2019-03-03T06:45:46.932Z,88.76
2019-03-03T06:46:47.287Z,88.86
2019-03-03T06:47:47.449Z,88.76
2019-03-03T06:48:47.713Z,88.56
2019-03-03T06:49:48.016Z,88.35
2019-03-03T06:50:48.282Z,88.10
2019-03-03T06:51:48.570Z,88.41
2019-03-03T06:52:48.820Z,88.51
2019-03-03T06:53:49.097Z,87.59
2019-03-03T06:54:49.390Z,87.49
2019-03-03T06:55:49.724Z,87.49
2019-03-03T06:56:49.959Z,87.28
2019-03-03T06:57:50.204Z,87.13
2019-03-03T06:58:50.459Z,86.93
2019-03-03T06:59:50.744Z,86.97
2019-03-03T07:00:51.010Z,86.83
2019-03-03T07:01:51.329Z,86.62
2019-03-03T07:02:51.586Z,86.52
2019-03-03T07:03:51.978Z,86.32
2019-03-03T07:04:52.107Z,85.90
2019-03-03T07:05:52.380Z,85.90
2019-03-03T07:06:52.669Z,86.00
2019-03-03T07:07:52.910Z,85.80
2019-03-03T07:08:53.180Z,85.49
2019-03-03T07:09:53.460Z,85.49
2019-03-03T07:10:53.717Z,85.46
2019-03-03T07:11:54.143Z,85.66
2019-03-03T07:12:54.265Z,85.76
2019-03-03T07:13:54.532Z,85.86
2019-03-03T07:14:54.823Z,84.53
2019-03-03T07:15:55.056Z,84.63
2019-03-03T07:16:55.386Z,84.74
2019-03-03T07:17:55.613Z,84.18
2019-03-03T07:18:55.906Z,83.29
2019-03-03T07:19:56.192Z,82.95
2019-03-03T07:20:56.382Z,83.36
2019-03-03T07:21:56.677Z,83.67
2019-03-03T07:22:56.942Z,82.50
2019-03-03T07:23:57.219Z,82.84
2019-03-03T07:24:57.497Z,82.33
2019-03-03T07:25:57.808Z,82.09
2019-03-03T07:26:58.278Z,81.88
2019-03-03T07:27:58.559Z,81.62
2019-03-03T07:28:58.524Z,81.57
2019-03-03T07:29:58.811Z,81.68
2019-03-03T07:30:59.069Z,81.88
2019-03-03T07:31:59.385Z,81.16
2019-03-03T07:32:59.603Z,81.02
2019-03-03T07:33:59.862Z,80.92
2019-03-03T07:35:00.275Z,80.51
2019-03-03T07:36:00.457Z,80.31
2019-03-03T07:37:00.778Z,80.72
2019-03-03T07:38:00.949Z,80.21
2019-03-03T07:39:01.201Z,80.51
2019-03-03T07:40:01.503Z,80.62
2019-03-03T07:41:01.755Z,80.00
2019-03-03T07:42:02.050Z,80.10
2019-03-03T07:43:02.292Z,79.55
2019-03-03T07:44:02.564Z,79.35
2019-03-03T07:45:04.515Z,79.18
2019-03-03T07:46:03.081Z,79.14
2019-03-03T07:47:03.384Z,78.63
2019-03-03T07:48:03.622Z,78.59
2019-03-03T07:49:03.890Z,78.53
2019-03-03T07:50:04.162Z,78.74
2019-03-03T07:51:04.437Z,78.42
2019-03-03T07:52:04.735Z,77.91
2019-03-03T07:53:05.042Z,78.19
2019-03-03T07:54:05.227Z,77.67
2019-03-03T07:55:05.499Z,77.57
2019-03-03T07:56:05.768Z,77.98
2019-03-03T07:57:06.042Z,76.75
2019-03-03T07:58:06.304Z,76.65
2019-03-03T07:59:06.571Z,77.16
2019-03-03T08:00:06.870Z,76.95
2019-03-03T08:01:07.142Z,76.44
2019-03-03T08:02:07.370Z,76.65
2019-03-03T08:03:07.651Z,76.54
2019-03-03T08:04:07.917Z,76.44
2019-03-03T08:05:08.203Z,76.85
2019-03-03T08:06:08.452Z,76.14
2019-03-03T08:07:08.751Z,75.79
2019-03-03T08:08:09.000Z,75.07
2019-03-03T08:09:09.354Z,75.48
2019-03-03T08:10:09.558Z,75.48
2019-03-03T08:11:09.807Z,75.59
2019-03-03T08:12:10.109Z,74.87
2019-03-03T08:13:10.351Z,74.66
2019-03-03T08:14:10.612Z,74.73
2019-03-03T08:15:10.904Z,74.84
2019-03-03T08:16:11.161Z,73.91
2019-03-03T08:17:11.552Z,74.11
2019-03-03T08:18:11.780Z,74.02
2019-03-03T08:19:11.964Z,74.32
2019-03-03T08:20:12.242Z,73.50
2019-03-03T08:21:12.497Z,72.86
2019-03-03T08:22:12.806Z,73.36
2019-03-03T08:23:13.047Z,72.75
2019-03-03T08:24:13.285Z,72.55
2019-03-03T08:25:13.601Z,72.55
2019-03-03T08:26:13.937Z,72.55
2019-03-03T08:27:14.279Z,72.55
2019-03-03T08:28:14.365Z,72.45
2019-03-03T08:29:14.616Z,71.94
2019-03-03T08:30:14.921Z,72.55
2019-03-03T08:31:15.174Z,72.45
2019-03-03T08:32:15.470Z,72.24
2019-03-03T08:33:15.733Z,71.94
2019-03-03T08:34:16.031Z,71.83
2019-03-03T08:35:16.278Z,71.59
2019-03-03T08:36:16.500Z,71.19
2019-03-03T08:37:16.784Z,71.15
2019-03-03T08:38:17.067Z,70.64
2019-03-03T08:39:17.312Z,70.16
2019-03-03T08:40:17.607Z,70.43
2019-03-03T08:41:17.855Z,70.43
2019-03-03T08:42:18.169Z,69.93
2019-03-03T08:43:18.401Z,70.03
2019-03-03T08:44:18.657Z,70.13
2019-03-03T08:45:18.971Z,70.13
2019-03-03T08:46:19.174Z,70.03
2019-03-03T08:47:19.460Z,70.13
2019-03-03T08:48:22.657Z,70.23
2019-03-03T08:49:19.991Z,70.75
2019-03-03T08:50:20.346Z,70.23
2019-03-03T08:51:20.539Z,70.75
2019-03-03T08:52:20.817Z,70.78
2019-03-03T08:53:21.100Z,70.88
2019-03-03T08:54:21.334Z,70.54
2019-03-03T08:55:21.648Z,70.34
2019-03-03T08:56:21.881Z,70.54
2019-03-03T08:57:22.124Z,70.43
2019-03-03T08:58:22.419Z,69.82
2019-03-03T08:59:22.780Z,69.82
2019-03-03T09:00:22.969Z,69.75
2019-03-03T09:01:23.210Z,69.82
2019-03-03T09:02:23.466Z,69.21
2019-03-03T09:03:23.766Z,69.38
2019-03-03T09:04:24.016Z,68.87
2019-03-03T09:05:24.295Z,69.52
2019-03-03T09:06:24.787Z,69.62
2019-03-03T09:07:24.947Z,70.03
2019-03-03T09:08:25.122Z,70.13
2019-03-03T09:09:26.120Z,71.25
2019-03-03T09:10:25.749Z,71.15
2019-03-03T09:11:25.932Z,71.56
2019-03-03T09:12:26.201Z,72.58
2019-03-03T09:13:26.479Z,72.69
2019-03-03T09:14:26.745Z,72.79
2019-03-03T09:15:27.101Z,72.69
2019-03-03T09:16:27.282Z,72.69
2019-03-03T09:17:27.548Z,72.62
2019-03-03T09:18:27.837Z,72.79
2019-03-03T09:19:28.071Z,72.58
2019-03-03T09:20:28.362Z,72.69
2019-03-03T09:21:28.636Z,71.97
2019-03-03T09:22:28.888Z,72.28
2019-03-03T09:23:29.221Z,71.97
2019-03-03T09:24:29.437Z,72.89
2019-03-03T09:25:29.663Z,72.28
2019-03-03T09:26:29.958Z,72.38
2019-03-03T09:27:30.211Z,71.97
2019-03-03T09:28:30.502Z,72.48
2019-03-03T09:29:30.783Z,71.66
2019-03-03T09:30:31.006Z,71.80
2019-03-03T09:31:31.321Z,72.11
2019-03-03T09:32:31.612Z,71.39
2019-03-03T09:33:31.834Z,71.90
2019-03-03T09:34:32.102Z,71.59
2019-03-03T09:35:32.344Z,71.87
2019-03-03T09:36:32.643Z,71.36
2019-03-03T09:37:32.919Z,70.95
2019-03-03T09:38:33.239Z,70.84
2019-03-03T09:39:33.502Z,70.40
2019-03-03T09:40:33.823Z,70.10
2019-03-03T09:41:34.001Z,70.00
2019-03-03T09:42:34.252Z,70.10
2019-03-03T09:43:34.537Z,70.61
2019-03-03T09:44:34.817Z,69.69
2019-03-03T09:45:35.048Z,69.69
2019-03-03T09:46:35.325Z,68.77
2019-03-03T09:47:35.577Z,69.79
2019-03-03T09:48:35.951Z,69.79
2019-03-03T09:49:36.148Z,69.48
2019-03-03T09:50:36.391Z,69.59
2019-03-03T09:51:36.658Z,69.24
2019-03-03T09:52:36.911Z,68.84
2019-03-03T09:53:37.214Z,69.04
2019-03-03T09:54:37.483Z,69.15
2019-03-03T09:55:37.735Z,68.63
2019-03-03T09:56:38.054Z,67.92
2019-03-03T09:57:38.232Z,68.74
2019-03-03T09:58:38.546Z,68.12
2019-03-03T09:59:38.850Z,68.84
2019-03-03T10:00:39.694Z,68.43
2019-03-03T10:01:39.365Z,68.40
2019-03-03T10:02:39.614Z,68.70
2019-03-03T10:03:39.861Z,69.15
2019-03-03T10:04:40.240Z,68.84
2019-03-03T10:05:40.388Z,68.74
2019-03-03T10:06:40.688Z,68.94
2019-03-03T10:07:40.940Z,68.84
2019-03-03T10:08:41.218Z,69.04
2019-03-03T10:09:41.499Z,69.45
2019-03-03T10:10:41.753Z,69.45
2019-03-03T10:11:42.032Z,69.56
2019-03-03T10:12:42.318Z,68.94
2019-03-03T10:13:42.636Z,69.04
2019-03-03T10:14:42.854Z,69.24
2019-03-03T10:15:43.146Z,69.15
2019-03-03T10:16:43.396Z,69.01
2019-03-03T10:17:43.676Z,68.40
2019-03-03T10:18:43.908Z,68.80
2019-03-03T10:19:44.242Z,68.09
2019-03-03T10:20:44.440Z,67.89
2019-03-03T10:21:47.691Z,68.91
2019-03-03T10:22:44.990Z,68.60
2019-03-03T10:23:45.258Z,68.40
2019-03-03T10:24:45.835Z,68.60
2019-03-03T10:26:01.161Z,67.89
2019-03-03T10:28:07.344Z,69.21
2019-03-03T10:29:00.229Z,69.93
2019-03-03T10:30:04.287Z,70.44
2019-03-03T10:31:00.157Z,72.48
2019-03-03T10:32:00.328Z,71.77
2019-03-03T10:33:00.595Z,71.67
2019-03-03T10:34:00.859Z,71.87
2019-03-03T10:35:01.144Z,71.29
2019-03-03T10:36:01.417Z,71.91
2019-03-03T10:37:01.662Z,72.41
2019-03-03T10:38:02.963Z,71.59
2019-03-03T10:39:02.345Z,72.82
2019-03-03T10:40:02.517Z,70.98
2019-03-03T10:41:02.752Z,70.98
2019-03-03T10:42:03.077Z,70.98
2019-03-03T10:43:03.337Z,70.68
2019-03-03T10:44:03.554Z,73.30
2019-03-03T10:45:04.082Z,70.98
2019-03-03T10:46:04.072Z,70.14
2019-03-03T10:47:04.435Z,70.95
2019-03-03T10:48:04.686Z,70.14
2019-03-03T10:49:04.963Z,69.59
2019-03-03T10:50:05.188Z,70.31
2019-03-03T10:51:05.466Z,70.54
2019-03-03T10:52:05.719Z,70.31
2019-03-03T10:53:05.982Z,71.97
2019-03-03T10:54:06.247Z,71.73
2019-03-03T10:55:06.574Z,72.55
2019-03-03T10:56:06.778Z,72.24
2019-03-03T10:57:07.070Z,71.77
2019-03-03T10:58:07.329Z,72.69
2019-03-03T10:59:07.598Z,73.10
2019-03-03T11:00:07.879Z,72.48
2019-03-03T11:01:08.142Z,72.99
2019-03-03T11:02:08.402Z,73.06
2019-03-03T11:03:08.708Z,72.86
2019-03-03T11:04:09.013Z,73.40
2019-03-03T11:05:09.225Z,72.65
2019-03-03T11:06:09.486Z,72.34
2019-03-03T11:07:09.743Z,72.14
2019-03-03T11:08:10.155Z,72.04
2019-03-03T11:09:10.266Z,72.34
2019-03-03T11:10:10.571Z,72.24
2019-03-03T11:11:10.826Z,71.73
2019-03-03T11:12:11.212Z,71.70
2019-03-03T11:13:11.371Z,70.89
2019-03-03T11:14:11.626Z,70.61
2019-03-03T11:15:18.208Z,70.51
2019-03-03T11:16:13.469Z,71.19
2019-03-03T11:17:12.449Z,70.98
2019-03-03T11:18:14.014Z,70.57
2019-03-03T11:19:12.983Z,72.21
2019-03-03T11:20:13.339Z,70.37
2019-03-03T11:21:13.515Z,71.29
2019-03-03T11:22:13.773Z,70.89
2019-03-03T11:23:14.068Z,71.29
2019-03-03T11:24:14.321Z,70.57
2019-03-03T11:25:14.742Z,70.81
2019-03-03T11:26:14.872Z,71.12
2019-03-03T11:27:15.134Z,70.61
2019-03-03T11:28:23.352Z,70.51
2019-03-03T11:29:17.245Z,70.81
2019-03-03T11:30:15.930Z,70.72
2019-03-03T11:31:16.183Z,71.02
2019-03-03T11:32:16.472Z,70.51
2019-03-03T11:33:16.759Z,70.81
2019-03-03T11:34:17.014Z,70.40
2019-03-03T11:35:17.285Z,69.69
2019-03-03T11:36:17.583Z,69.69
2019-03-03T11:37:17.880Z,69.49
2019-03-03T11:38:18.109Z,69.66
2019-03-03T11:39:18.359Z,69.35
2019-03-03T11:40:18.636Z,69.15
2019-03-03T11:41:18.921Z,69.25
2019-03-03T11:42:19.796Z,69.05
2019-03-03T11:43:19.469Z,69.35
2019-03-03T11:44:19.737Z,68.84
2019-03-03T11:45:20.119Z,69.25
2019-03-03T11:46:20.301Z,69.35
2019-03-03T11:47:20.545Z,69.46
2019-03-03T11:48:20.866Z,69.59
2019-03-03T11:49:21.155Z,70.00
2019-03-03T11:50:21.371Z,70.51
2019-03-03T11:51:21.700Z,70.81
2019-03-03T11:52:21.904Z,71.02
2019-03-03T11:53:22.289Z,71.22
2019-03-03T11:54:22.425Z,70.72
2019-03-03T11:55:22.701Z,71.73
2019-03-03T11:56:23.020Z,71.53
2019-03-03T11:57:23.235Z,71.33
2019-03-03T11:58:23.520Z,71.22
2019-03-03T11:59:23.752Z,71.94
2019-03-03T12:00:24.043Z,71.33
2019-03-03T12:01:24.409Z,71.22
2019-03-03T12:02:24.561Z,72.38
2019-03-03T12:03:24.890Z,71.53
2019-03-03T12:04:29.250Z,72.17
2019-03-03T12:05:25.353Z,71.97
2019-03-03T12:06:25.692Z,72.99
2019-03-03T12:07:25.913Z,72.69
2019-03-03T12:08:26.201Z,72.38
2019-03-03T12:09:26.475Z,72.72
2019-03-03T12:10:26.758Z,72.28
2019-03-03T12:11:27.205Z,73.23
2019-03-03T12:12:27.255Z,73.84
2019-03-03T12:13:27.539Z,74.05
2019-03-03T12:14:27.791Z,73.74
2019-03-03T12:15:28.058Z,74.56
2019-03-03T12:16:28.352Z,75.48
2019-03-03T12:17:28.619Z,76.19
2019-03-03T12:18:29.008Z,76.40
2019-03-03T12:19:29.158Z,76.09
2019-03-03T12:20:29.427Z,76.09
2019-03-03T12:21:29.706Z,77.01
2019-03-03T12:22:29.960Z,77.93
2019-03-03T12:23:30.247Z,77.45
2019-03-03T12:24:35.311Z,77.11
2019-03-03T12:25:30.773Z,77.45
2019-03-03T12:26:31.261Z,77.11
2019-03-03T12:27:31.295Z,76.90
2019-03-03T12:28:31.596Z,77.42
2019-03-03T12:29:31.847Z,77.52
2019-03-03T12:30:32.109Z,77.01
2019-03-03T12:31:32.458Z,77.31
2019-03-03T12:32:32.652Z,77.93
2019-03-03T12:33:32.921Z,77.72
2019-03-03T12:34:33.241Z,77.52
2019-03-03T12:35:33.441Z,77.11
2019-03-03T12:36:33.761Z,77.62
2019-03-03T12:37:33.986Z,77.52
2019-03-03T12:38:34.271Z,77.59
2019-03-03T12:39:34.507Z,76.87
2019-03-03T12:40:34.789Z,77.22
2019-03-03T12:41:35.099Z,76.70
2019-03-03T12:42:35.388Z,77.08
2019-03-03T12:43:35.598Z,76.56
2019-03-03T12:44:35.846Z,76.67
2019-03-03T12:45:36.133Z,77.38
2019-03-03T12:46:36.478Z,76.87
2019-03-03T12:47:36.689Z,76.46
2019-03-03T12:48:36.994Z,76.06
2019-03-03T12:49:37.228Z,76.16
2019-03-03T12:50:37.512Z,76.73
2019-03-03T12:51:37.913Z,76.53
2019-03-03T12:52:38.051Z,76.46
2019-03-03T12:53:38.315Z,75.92
2019-03-03T12:54:38.585Z,76.43
2019-03-03T12:55:38.837Z,75.82
2019-03-03T12:56:39.150Z,75.34
2019-03-03T12:57:39.394Z,75.71